Time;durP1;ratioP1;P1;durP2;ratioP2;P2;SDS_P1;SDS_P2;PMS_P1;PMS_P2;Temp;Humidity;BMP_temperature;BMP_pressure;BME280_temperature;BME280_humidity;BME280_pressure;Samples;Min_cycle;Max_cycle;Signal;HPM_P1;HPM_P2
2022/02/26 00:02:17;;;;;;;;;;;3.20;99.90;;;;;;5112862;28;19925;-59
2022/02/26 00:04:42;;;;;;;;;;;3.10;99.90;;;;;;5112865;28;19916;-59
2022/02/26 00:07:08;;;;;;;;;;;3.10;99.90;;;;;;5112985;28;20389;-59
2022/02/26 00:09:34;;;;;;;;;;;3.10;99.90;;;;;;5112727;28;20333;-59
2022/02/26 00:12:00;;;;;;;;;;;3.00;99.90;;;;;;5112529;28;20396;-59
2022/02/26 00:14:25;;;;;;;;;;;3.00;99.90;;;;;;5112762;28;20018;-59
2022/02/26 00:16:51;;;;;;;;;;;3.00;99.90;;;;;;5112527;28;20002;-59
2022/02/26 00:19:16;;;;;;;;;;;3.00;99.90;;;;;;5112625;28;19972;-59
2022/02/26 00:21:42;;;;;;;;;;;3.00;99.90;;;;;;5112635;28;19921;-59
2022/02/26 00:24:07;;;;;;;;;;;3.00;99.90;;;;;;5112605;28;20292;-59
2022/02/26 00:26:33;;;;;;;;;;;2.90;99.90;;;;;;5112487;28;20014;-59
2022/02/26 00:28:59;;;;;;;;;;;2.90;99.90;;;;;;5112358;28;19980;-59
2022/02/26 00:31:25;;;;;;;;;;;3.00;99.90;;;;;;5112621;28;19916;-59
2022/02/26 00:33:50;;;;;;;;;;;3.00;99.90;;;;;;5112575;28;19916;-59
2022/02/26 00:36:16;;;;;;;;;;;3.00;99.90;;;;;;5112328;28;19924;-59
2022/02/26 00:38:41;;;;;;;;;;;3.00;99.90;;;;;;5112358;28;19916;-59
2022/02/26 00:41:07;;;;;;;;;;;3.00;99.90;;;;;;5112426;28;20027;-59
2022/02/26 00:43:32;;;;;;;;;;;3.00;99.90;;;;;;5113585;28;19920;-59
2022/02/26 00:45:58;;;;;;;;;;;3.00;99.90;;;;;;5116807;28;19934;-59
2022/02/26 00:49:46;;;;;;;;;;;3.00;99.90;;;;;;5116546;28;20327;-59
2022/02/26 00:51:09;;;;;;;;;;;2.90;99.90;;;;;;5116242;28;20452;-59
2022/02/26 00:53:35;;;;;;;;;;;2.90;99.90;;;;;;5116308;28;19995;-59
2022/02/26 00:56:00;;;;;;;;;;;3.00;99.90;;;;;;5116578;28;20246;-59
2022/02/26 00:58:26;;;;;;;;;;;2.90;99.90;;;;;;5116390;28;20296;-59
2022/02/26 01:00:51;;;;;;;;;;;2.80;99.90;;;;;;5116277;28;19916;-59
2022/02/26 01:03:17;;;;;;;;;;;2.70;99.90;;;;;;5116131;28;19916;-59
2022/02/26 01:05:42;;;;;;;;;;;2.80;99.90;;;;;;5116124;28;19920;-59
2022/02/26 01:08:08;;;;;;;;;;;2.80;99.90;;;;;;5116056;28;20310;-59
2022/02/26 01:10:34;;;;;;;;;;;2.80;99.90;;;;;;5115957;28;19971;-60
2022/02/26 01:12:59;;;;;;;;;;;2.90;99.90;;;;;;5116135;28;19922;-59
2022/02/26 01:15:25;;;;;;;;;;;2.90;99.90;;;;;;5115884;28;19922;-59
2022/02/26 01:17:50;;;;;;;;;;;2.90;99.90;;;;;;5116177;28;19919;-59
2022/02/26 01:20:16;;;;;;;;;;;2.90;99.90;;;;;;5116088;28;19931;-59
2022/02/26 01:22:41;;;;;;;;;;;2.90;99.90;;;;;;5115737;28;20365;-59
2022/02/26 01:25:07;;;;;;;;;;;2.90;99.90;;;;;;5115822;28;19916;-59
2022/02/26 01:27:33;;;;;;;;;;;2.80;99.90;;;;;;5115773;28;19916;-59
2022/02/26 01:29:58;;;;;;;;;;;2.80;99.90;;;;;;5115642;28;19927;-59
2022/02/26 01:32:24;;;;;;;;;;;2.80;99.90;;;;;;5115752;28;19923;-59
2022/02/26 01:34:49;;;;;;;;;;;2.70;99.90;;;;;;5115927;28;19916;-59
2022/02/26 01:37:15;;;;;;;;;;;2.70;99.90;;;;;;5114187;28;19920;-59
2022/02/26 01:39:41;;;;;;;;;;;2.60;99.90;;;;;;5115659;28;19915;-59
2022/02/26 01:42:06;;;;;;;;;;;2.60;99.90;;;;;;5115491;28;19919;-59
2022/02/26 01:44:36;;;;;;;;;;;2.60;99.90;;;;;;5115488;28;20442;-59
2022/02/26 01:47:02;;;;;;;;;;;2.60;99.90;;;;;;5115395;27;19948;-59
2022/02/26 01:49:27;;;;;;;;;;;2.60;99.90;;;;;;5115261;28;19926;-59
2022/02/26 01:51:53;;;;;;;;;;;2.50;99.90;;;;;;5115194;28;20042;-59
2022/02/26 01:54:19;;;;;;;;;;;2.30;99.90;;;;;;5114529;28;20351;-59
2022/02/26 01:56:44;;;;;;;;;;;2.20;99.90;;;;;;5115067;27;19922;-59
2022/02/26 01:59:10;;;;;;;;;;;2.20;99.90;;;;;;5115099;27;19970;-59
2022/02/26 02:01:36;;;;;;;;;;;2.10;99.90;;;;;;5115312;28;19927;-59
2022/02/26 02:04:01;;;;;;;;;;;2.10;99.90;;;;;;5115200;28;19919;-59
2022/02/26 02:06:27;;;;;;;;;;;2.00;99.90;;;;;;5114981;28;19920;-59
2022/02/26 02:08:52;;;;;;;;;;;2.10;99.90;;;;;;5115077;27;19927;-59
2022/02/26 02:11:18;;;;;;;;;;;2.00;99.90;;;;;;5113537;27;19915;-59
2022/02/26 02:13:43;;;;;;;;;;;2.10;99.90;;;;;;5114922;28;19922;-59
2022/02/26 02:16:09;;;;;;;;;;;2.00;99.90;;;;;;5114902;28;19915;-59
2022/02/26 02:18:37;;;;;;;;;;;1.90;99.90;;;;;;5114907;28;19916;-59
2022/02/26 02:21:03;;;;;;;;;;;1.90;99.90;;;;;;5114691;28;19960;-59
2022/02/26 02:23:28;;;;;;;;;;;1.90;99.90;;;;;;5114824;28;20010;-59
2022/02/26 02:25:56;;;;;;;;;;;1.70;99.90;;;;;;5114875;27;20393;-59
2022/02/26 02:28:24;;;;;;;;;;;1.70;99.90;;;;;;5114501;28;19916;-59
2022/02/26 02:30:50;;;;;;;;;;;1.80;99.90;;;;;;5114645;28;19915;-59
2022/02/26 02:33:16;;;;;;;;;;;1.70;99.90;;;;;;5114357;28;20060;-59
2022/02/26 02:35:42;;;;;;;;;;;1.80;99.90;;;;;;5114510;28;19916;-59
2022/02/26 02:38:09;;;;;;;;;;;1.70;99.90;;;;;;5114169;28;19926;-59
2022/02/26 02:40:35;;;;;;;;;;;1.70;99.90;;;;;;5114562;28;20000;-59
2022/02/26 02:43:01;;;;;;;;;;;1.60;99.90;;;;;;5114199;28;19916;-59
2022/02/26 02:45:26;;;;;;;;;;;1.80;99.90;;;;;;5113145;28;19920;-59
2022/02/26 02:47:52;;;;;;;;;;;1.80;99.90;;;;;;5114089;28;20006;-59
2022/02/26 02:50:18;;;;;;;;;;;1.70;99.90;;;;;;5114118;28;20274;-59
2022/02/26 02:52:44;;;;;;;;;;;1.70;99.90;;;;;;5114224;27;19916;-59
2022/02/26 02:55:10;;;;;;;;;;;1.50;99.90;;;;;;5114302;28;19921;-59
2022/02/26 02:57:35;;;;;;;;;;;1.50;99.90;;;;;;5114238;28;19974;-59
2022/02/26 03:00:04;;;;;;;;;;;1.60;99.90;;;;;;5114210;27;19977;-59
2022/02/26 03:02:30;;;;;;;;;;;1.60;99.90;;;;;;5114006;28;19943;-59
2022/02/26 03:04:56;;;;;;;;;;;1.60;99.90;;;;;;5113307;28;20443;-59
2022/02/26 03:07:21;;;;;;;;;;;1.70;99.90;;;;;;5114041;28;19916;-59
2022/02/26 03:09:47;;;;;;;;;;;1.70;99.90;;;;;;5113848;28;19920;-59
2022/02/26 03:12:12;;;;;;;;;;;1.70;99.90;;;;;;5113846;28;19916;-59
2022/02/26 03:14:38;;;;;;;;;;;1.70;99.90;;;;;;5113695;28;19915;-59
2022/02/26 03:17:03;;;;;;;;;;;1.60;99.90;;;;;;5113529;28;19915;-59
2022/02/26 03:19:29;;;;;;;;;;;1.70;99.90;;;;;;5113898;28;20370;-59
2022/02/26 03:21:55;;;;;;;;;;;1.70;99.90;;;;;;5113753;28;19916;-59
2022/02/26 03:24:20;;;;;;;;;;;1.80;99.90;;;;;;5113459;28;19923;-59
2022/02/26 03:26:50;;;;;;;;;;;1.80;99.90;;;;;;5113446;28;19926;-59
2022/02/26 03:29:15;;;;;;;;;;;1.60;99.90;;;;;;5113394;28;19976;-59
2022/02/26 03:31:43;;;;;;;;;;;1.50;99.90;;;;;;5113303;28;19972;-59
2022/02/26 03:34:09;;;;;;;;;;;1.40;99.90;;;;;;5113483;28;19960;-59
2022/02/26 03:36:34;;;;;;;;;;;1.40;99.90;;;;;;5113349;28;19919;-59
2022/02/26 03:39:01;;;;;;;;;;;1.30;99.90;;;;;;5113408;28;19915;-59
2022/02/26 03:41:26;;;;;;;;;;;1.30;99.90;;;;;;5113148;28;19919;-59
2022/02/26 03:43:52;;;;;;;;;;;1.40;99.90;;;;;;5113210;28;19922;-59
2022/02/26 03:46:17;;;;;;;;;;;1.40;99.90;;;;;;5112996;28;20384;-59
2022/02/26 03:48:43;;;;;;;;;;;1.30;99.90;;;;;;5113090;28;20027;-59
2022/02/26 03:51:10;;;;;;;;;;;1.20;99.90;;;;;;5113440;28;19965;-59
2022/02/26 03:53:36;;;;;;;;;;;1.00;99.90;;;;;;5113193;28;19927;-59
2022/02/26 03:56:02;;;;;;;;;;;0.90;99.90;;;;;;5113134;28;19926;-59
2022/02/26 03:58:27;;;;;;;;;;;1.10;99.90;;;;;;5112886;28;19955;-59
2022/02/26 04:00:53;;;;;;;;;;;1.20;99.90;;;;;;5112782;28;19930;-59
2022/02/26 04:03:18;;;;;;;;;;;1.20;99.90;;;;;;5112801;28;19929;-59
2022/02/26 04:05:44;;;;;;;;;;;1.20;99.90;;;;;;5112955;27;19915;-59
2022/02/26 04:08:09;;;;;;;;;;;1.20;99.90;;;;;;5112828;28;19916;-59
2022/02/26 04:10:35;;;;;;;;;;;1.20;99.90;;;;;;5112630;28;19920;-59
2022/02/26 04:13:01;;;;;;;;;;;1.20;99.90;;;;;;5112611;28;19922;-59
2022/02/26 04:15:27;;;;;;;;;;;1.10;99.90;;;;;;5112676;27;19920;-59
2022/02/26 04:17:52;;;;;;;;;;;1.00;99.90;;;;;;5112390;28;20006;-59
2022/02/26 04:20:18;;;;;;;;;;;0.90;99.90;;;;;;5112918;28;20380;-59
2022/02/26 04:22:43;;;;;;;;;;;0.80;99.90;;;;;;5112681;28;19916;-59
2022/02/26 04:25:09;;;;;;;;;;;0.80;99.90;;;;;;5112625;28;20462;-59
2022/02/26 04:27:34;;;;;;;;;;;0.70;99.90;;;;;;5112944;28;20393;-59
2022/02/26 04:30:00;;;;;;;;;;;0.70;99.90;;;;;;5112371;28;19927;-59
2022/02/26 04:32:26;;;;;;;;;;;0.80;99.90;;;;;;5112881;28;20022;-59
2022/02/26 04:34:51;;;;;;;;;;;0.70;99.90;;;;;;5112929;28;19915;-59
2022/02/26 04:37:20;;;;;;;;;;;0.70;99.90;;;;;;5112163;28;20361;-58
2022/02/26 04:39:46;;;;;;;;;;;0.70;99.90;;;;;;5112647;28;19954;-59
2022/02/26 04:42:12;;;;;;;;;;;0.70;99.90;;;;;;5112477;28;19916;-59
2022/02/26 04:44:37;;;;;;;;;;;0.70;99.90;;;;;;5112365;28;19922;-59
2022/02/26 04:47:03;;;;;;;;;;;0.70;99.90;;;;;;5112465;28;19939;-59
2022/02/26 04:49:29;;;;;;;;;;;0.60;99.90;;;;;;5112379;28;20398;-59
2022/02/26 04:51:54;;;;;;;;;;;0.50;99.90;;;;;;5112401;28;19963;-59
2022/02/26 04:54:20;;;;;;;;;;;0.50;99.90;;;;;;5112330;28;19923;-59
2022/02/26 04:56:45;;;;;;;;;;;0.60;99.90;;;;;;5112157;28;19923;-59
2022/02/26 04:59:11;;;;;;;;;;;0.50;99.90;;;;;;5112236;28;19922;-59
2022/02/26 05:01:36;;;;;;;;;;;0.60;99.90;;;;;;5112405;28;19916;-59
2022/02/26 05:04:02;;;;;;;;;;;0.60;99.90;;;;;;5112308;28;19916;-59
2022/02/26 05:06:27;;;;;;;;;;;0.50;99.90;;;;;;5112231;28;19963;-58
2022/02/26 05:08:53;;;;;;;;;;;0.60;99.90;;;;;;5112120;28;19929;-59
2022/02/26 05:11:18;;;;;;;;;;;0.60;99.90;;;;;;5112089;28;19916;-59
2022/02/26 05:13:44;;;;;;;;;;;0.60;99.90;;;;;;5112385;28;20039;-58
2022/02/26 05:16:09;;;;;;;;;;;0.60;99.90;;;;;;5112017;28;20011;-59
2022/02/26 05:18:35;;;;;;;;;;;0.50;99.90;;;;;;5111280;28;20343;-59
2022/02/26 05:21:00;;;;;;;;;;;0.40;99.90;;;;;;5112220;28;19915;-58
2022/02/26 05:23:26;;;;;;;;;;;0.30;99.90;;;;;;5112444;28;19920;-59
2022/02/26 05:25:51;;;;;;;;;;;0.40;99.90;;;;;;5110902;28;20007;-59
2022/02/26 05:28:17;;;;;;;;;;;0.40;99.90;;;;;;5112081;28;19916;-59
2022/02/26 05:30:42;;;;;;;;;;;0.30;99.90;;;;;;5115481;28;19931;-59
2022/02/26 05:33:08;;;;;;;;;;;0.40;99.90;;;;;;5115665;28;19915;-59
2022/02/26 05:35:34;;;;;;;;;;;0.30;99.90;;;;;;5115472;28;19916;-59
2022/02/26 05:37:59;;;;;;;;;;;0.30;99.90;;;;;;5115355;28;19920;-59
2022/02/26 05:40:25;;;;;;;;;;;0.30;99.90;;;;;;5115454;28;19916;-59
2022/02/26 05:42:50;;;;;;;;;;;0.40;99.90;;;;;;5115314;28;19962;-59
2022/02/26 05:45:16;;;;;;;;;;;0.30;99.90;;;;;;5115691;28;20631;-59
2022/02/26 05:47:42;;;;;;;;;;;0.40;99.90;;;;;;5115682;28;19915;-59
2022/02/26 05:50:07;;;;;;;;;;;0.40;99.90;;;;;;5115607;28;19928;-59
2022/02/26 05:52:33;;;;;;;;;;;0.30;99.90;;;;;;5115190;28;19961;-59
2022/02/26 05:54:59;;;;;;;;;;;0.30;99.90;;;;;;5115171;28;19916;-59
2022/02/26 05:57:25;;;;;;;;;;;0.20;99.90;;;;;;5115176;28;19923;-59
2022/02/26 05:59:50;;;;;;;;;;;0.20;99.90;;;;;;5115051;28;19915;-59
2022/02/26 06:02:16;;;;;;;;;;;0.20;99.90;;;;;;5115089;28;19919;-59
2022/02/26 06:04:42;;;;;;;;;;;0.30;99.90;;;;;;5115145;27;19922;-58
2022/02/26 06:07:07;;;;;;;;;;;0.30;99.90;;;;;;5115050;28;19915;-58
2022/02/26 06:09:33;;;;;;;;;;;0.30;99.90;;;;;;5114881;28;20030;-59
2022/02/26 06:11:58;;;;;;;;;;;0.30;99.90;;;;;;5114842;28;19915;-58
2022/02/26 06:14:24;;;;;;;;;;;0.20;99.90;;;;;;5114708;28;20048;-58
2022/02/26 06:16:49;;;;;;;;;;;0.20;99.90;;;;;;5115032;28;19998;-58
2022/02/26 06:19:15;;;;;;;;;;;0.10;99.90;;;;;;5114748;28;20353;-58
2022/02/26 06:21:40;;;;;;;;;;;0.10;99.90;;;;;;5114749;28;20281;-59
2022/02/26 06:24:06;;;;;;;;;;;0.10;99.90;;;;;;5114827;27;20071;-58
2022/02/26 06:26:32;;;;;;;;;;;0.20;99.90;;;;;;5114863;28;19920;-59
2022/02/26 06:28:58;;;;;;;;;;;0.30;99.90;;;;;;5114354;28;19926;-59
2022/02/26 06:31:23;;;;;;;;;;;0.30;99.90;;;;;;5114676;27;19922;-59
2022/02/26 06:33:49;;;;;;;;;;;0.10;99.90;;;;;;5114426;28;19915;-59
2022/02/26 06:36:14;;;;;;;;;;;0.10;99.90;;;;;;5114364;28;19916;-58
2022/02/26 06:38:41;;;;;;;;;;;0.10;99.90;;;;;;5114470;28;20052;-59
2022/02/26 06:41:11;;;;;;;;;;;0.10;99.90;;;;;;5114101;27;20428;-59
2022/02/26 06:43:37;;;;;;;;;;;0.30;99.90;;;;;;5114724;28;19919;-59
2022/02/26 06:46:04;;;;;;;;;;;0.20;99.90;;;;;;5114179;27;19916;-59
2022/02/26 06:48:30;;;;;;;;;;;0.20;99.90;;;;;;5114030;28;20421;-59
2022/02/26 06:50:55;;;;;;;;;;;0.20;99.90;;;;;;5114028;28;20011;-59
2022/02/26 06:53:21;;;;;;;;;;;0.20;99.90;;;;;;5114096;28;19959;-59
2022/02/26 06:55:46;;;;;;;;;;;0.20;99.90;;;;;;5113951;28;20006;-59
2022/02/26 06:58:12;;;;;;;;;;;0.30;99.90;;;;;;5113946;28;20258;-59
2022/02/26 07:00:37;;;;;;;;;;;0.40;99.90;;;;;;5114186;28;19916;-59
2022/02/26 07:03:03;;;;;;;;;;;0.50;99.90;;;;;;5114007;28;19969;-59
2022/02/26 07:05:28;;;;;;;;;;;0.60;99.90;;;;;;5113858;28;19961;-59
2022/02/26 07:07:54;;;;;;;;;;;0.50;99.90;;;;;;5113821;28;19976;-59
2022/02/26 07:10:19;;;;;;;;;;;0.70;99.90;;;;;;5113670;28;19920;-59
2022/02/26 07:12:45;;;;;;;;;;;0.80;99.90;;;;;;5113771;28;20011;-59
2022/02/26 07:15:11;;;;;;;;;;;0.90;99.90;;;;;;5114116;28;20492;-59
2022/02/26 07:17:36;;;;;;;;;;;1.10;99.90;;;;;;5113728;28;19923;-59
2022/02/26 07:20:03;;;;;;;;;;;1.10;99.90;;;;;;5113696;28;19940;-59
2022/02/26 07:22:29;;;;;;;;;;;1.10;99.90;;;;;;5113590;28;19916;-59
2022/02/26 07:24:54;;;;;;;;;;;1.30;99.90;;;;;;5113420;28;19915;-59
2022/02/26 07:27:20;;;;;;;;;;;1.40;99.90;;;;;;5113367;28;20272;-59
2022/02/26 07:29:45;;;;;;;;;;;1.60;99.90;;;;;;5113261;28;19963;-59
2022/02/26 07:32:11;;;;;;;;;;;1.70;99.90;;;;;;5113542;28;19919;-59
2022/02/26 07:34:36;;;;;;;;;;;2.00;99.90;;;;;;5113189;28;19953;-59
2022/02/26 07:37:02;;;;;;;;;;;2.10;99.90;;;;;;5113187;28;19919;-59
2022/02/26 07:39:28;;;;;;;;;;;2.40;99.90;;;;;;5113230;28;19916;-59
2022/02/26 07:41:53;;;;;;;;;;;2.60;99.90;;;;;;5113237;28;19966;-59
2022/02/26 07:44:19;;;;;;;;;;;2.90;99.90;;;;;;5113453;28;20447;-59
2022/02/26 07:46:44;;;;;;;;;;;3.20;99.90;;;;;;5113803;28;19938;-59
2022/02/26 07:49:10;;;;;;;;;;;3.50;99.90;;;;;;5113893;28;20385;-59
2022/02/26 07:51:35;;;;;;;;;;;3.70;99.90;;;;;;5114331;27;19969;-60
2022/02/26 07:54:01;;;;;;;;;;;3.90;99.90;;;;;;5113096;28;19964;-59
2022/02/26 07:56:27;;;;;;;;;;;3.90;99.90;;;;;;5114373;28;19988;-59
2022/02/26 07:58:52;;;;;;;;;;;4.20;99.90;;;;;;5114545;28;19919;-60
2022/02/26 08:01:18;;;;;;;;;;;4.50;99.90;;;;;;5114788;28;19916;-60
2022/02/26 08:03:44;;;;;;;;;;;4.80;99.90;;;;;;5114781;28;20365;-60
2022/02/26 08:06:09;;;;;;;;;;;5.10;99.90;;;;;;5114537;28;19923;-61
2022/02/26 08:08:35;;;;;;;;;;;5.40;99.90;;;;;;5114478;28;19915;-60
2022/02/26 08:11:00;;;;;;;;;;;5.70;99.90;;;;;;5114393;28;20008;-59
2022/02/26 08:13:26;;;;;;;;;;;5.90;99.90;;;;;;5114593;28;19968;-60
2022/02/26 08:15:52;;;;;;;;;;;6.20;99.90;;;;;;5114395;28;19923;-60
2022/02/26 08:18:17;;;;;;;;;;;6.30;99.90;;;;;;5112716;28;19998;-59
2022/02/26 08:20:43;;;;;;;;;;;6.60;99.90;;;;;;5114480;28;19916;-59
2022/02/26 08:23:08;;;;;;;;;;;6.60;99.90;;;;;;5114614;28;19923;-61
2022/02/26 08:25:34;;;;;;;;;;;6.90;99.90;;;;;;5114158;28;19915;-60
2022/02/26 08:28:00;;;;;;;;;;;7.00;99.90;;;;;;5114416;28;20330;-60
2022/02/26 08:30:26;;;;;;;;;;;7.10;99.90;;;;;;5114178;28;19978;-60
2022/02/26 08:32:52;;;;;;;;;;;7.00;99.90;;;;;;5114413;28;19922;-60
2022/02/26 08:35:18;;;;;;;;;;;6.70;99.90;;;;;;5114532;28;19923;-60
2022/02/26 08:37:46;;;;;;;;;;;6.60;99.90;;;;;;5114243;28;19919;-60
2022/02/26 08:40:12;;;;;;;;;;;6.70;99.90;;;;;;5114177;28;19968;-60
2022/02/26 08:42:38;;;;;;;;;;;6.90;99.90;;;;;;5114238;28;19968;-61
2022/02/26 08:45:05;;;;;;;;;;;7.20;99.90;;;;;;5114186;28;20002;-59
2022/02/26 08:47:30;;;;;;;;;;;7.40;99.90;;;;;;5146412;27;19920;-59
2022/02/26 08:49:56;;;;;;;;;;;7.80;99.90;;;;;;5113921;28;19929;-59
2022/02/26 08:52:22;;;;;;;;;;;7.50;99.90;;;;;;5113914;28;19916;-60
2022/02/26 08:54:47;;;;;;;;;;;7.50;99.90;;;;;;5113957;28;19961;-60
2022/02/26 08:57:13;;;;;;;;;;;7.60;99.90;;;;;;5114370;28;19919;-60
2022/02/26 08:59:39;;;;;;;;;;;7.40;99.90;;;;;;5112583;28;19969;-60
2022/02/26 09:02:04;;;;;;;;;;;7.40;99.90;;;;;;5113824;28;19916;-60
2022/02/26 09:04:30;;;;;;;;;;;7.80;99.90;;;;;;5116173;28;19920;-60
2022/02/26 09:06:55;;;;;;;;;;;8.10;99.90;;;;;;5117522;28;20361;-60
2022/02/26 09:09:21;;;;;;;;;;;8.40;99.90;;;;;;5117919;28;20006;-60
2022/02/26 09:11:47;;;;;;;;;;;8.50;99.90;;;;;;5116772;28;19988;-60
2022/02/26 09:14:13;;;;;;;;;;;8.50;99.90;;;;;;5117781;28;20361;-61
2022/02/26 09:16:39;;;;;;;;;;;8.70;99.90;;;;;;5117528;28;19915;-61
2022/02/26 09:19:04;;;;;;;;;;;8.90;99.90;;;;;;5117360;28;19926;-59
2022/02/26 09:21:30;;;;;;;;;;;9.20;99.90;;;;;;5117517;28;20289;-59
2022/02/26 09:23:56;;;;;;;;;;;9.40;99.90;;;;;;5117304;27;20285;-59
2022/02/26 09:26:21;;;;;;;;;;;9.60;99.90;;;;;;5117317;28;19916;-61
2022/02/26 09:28:47;;;;;;;;;;;9.60;99.90;;;;;;5117126;28;19916;-61
2022/02/26 09:31:13;;;;;;;;;;;9.80;99.90;;;;;;5117133;28;19916;-61
2022/02/26 09:33:39;;;;;;;;;;;10.00;99.90;;;;;;5100125;28;20008;-50
2022/02/26 09:36:06;;;;;;;;;;;10.10;99.90;;;;;;5095189;28;19952;-54
2022/02/26 09:38:32;;;;;;;;;;;10.30;99.90;;;;;;5095027;28;19920;-52
2022/02/26 09:40:59;;;;;;;;;;;10.50;99.90;;;;;;5095482;28;19916;-51
2022/02/26 09:43:25;;;;;;;;;;;10.40;99.90;;;;;;5095676;28;19969;-60
2022/02/26 09:45:51;;;;;;;;;;;10.50;99.90;;;;;;5096177;28;19915;-59
2022/02/26 09:48:17;;;;;;;;;;;10.60;99.90;;;;;;5096338;28;19920;-60
2022/02/26 09:50:43;;;;;;;;;;;10.60;99.90;;;;;;5096129;28;20426;-60
2022/02/26 09:53:11;;;;;;;;;;;10.60;99.90;;;;;;5096083;28;19961;-60
2022/02/26 09:55:38;;;;;;;;;;;10.60;99.90;;;;;;5095385;28;19919;-59
2022/02/26 09:58:03;;;;;;;;;;;10.70;99.90;;;;;;5096203;28;19941;-59
2022/02/26 10:00:29;;;;;;;;;;;10.60;99.90;;;;;;5096270;28;20335;-59
2022/02/26 10:02:55;;;;;;;;;;;10.60;99.90;;;;;;5096240;28;19916;-60
2022/02/26 10:05:20;;;;;;;;;;;10.70;99.90;;;;;;5095813;28;19920;-60
2022/02/26 10:07:49;;;;;;;;;;;10.90;99.90;;;;;;5095730;28;19958;-60
2022/02/26 10:10:22;;;;;;;;;;;10.80;99.90;;;;;;5095884;28;19928;-60
2022/02/26 10:12:52;;;;;;;;;;;10.90;99.90;;;;;;5095395;28;19916;-60
2022/02/26 10:15:38;;;;;;;;;;;11.00;99.90;;;;;;5095037;28;19985;-60
2022/02/26 10:18:12;;;;;;;;;;;10.80;99.90;;;;;;5095437;28;20365;-60
2022/02/26 10:20:44;;;;;;;;;;;10.90;99.90;;;;;;5094437;28;20011;-52
2022/02/26 10:23:11;;;;;;;;;;;10.90;99.90;;;;;;5094781;28;19915;-51
2022/02/26 10:25:37;;;;;;;;;;;11.00;99.90;;;;;;5094494;28;20388;-50
2022/02/26 10:28:03;;;;;;;;;;;11.10;99.90;;;;;;5094524;28;19994;-51
2022/02/26 10:30:30;;;;;;;;;;;11.00;99.90;;;;;;5094392;28;20252;-49
2022/02/26 10:33:09;;;;;;;;;;;11.10;99.90;;;;;;5094635;28;20042;-52
2022/02/26 10:35:44;;;;;;;;;;;11.10;99.90;;;;;;5094339;28;19915;-51
2022/02/26 10:38:18;;;;;;;;;;;11.20;99.90;;;;;;5093810;28;20429;-48
2022/02/26 10:40:54;;;;;;;;;;;11.30;99.90;;;;;;5094257;28;20270;-50
2022/02/26 10:43:35;;;;;;;;;;;11.30;99.90;;;;;;5094315;28;19916;-50
2022/02/26 10:46:22;;;;;;;;;;;11.30;99.90;;;;;;5093953;28;20052;-51
2022/02/26 10:48:50;;;;;;;;;;;11.30;99.90;;;;;;5093897;28;19985;-53
2022/02/26 10:51:16;;;;;;;;;;;11.50;99.90;;;;;;5093784;28;19922;-52
2022/02/26 10:53:42;;;;;;;;;;;11.40;99.90;;;;;;5094004;28;19961;-51
2022/02/26 10:56:09;;;;;;;;;;;11.40;99.90;;;;;;5093887;28;20323;-51
2022/02/26 10:58:35;;;;;;;;;;;11.50;99.90;;;;;;5093856;28;20011;-50
2022/02/26 11:01:03;;;;;;;;;;;11.60;99.90;;;;;;5093660;28;20015;-51
2022/02/26 11:03:28;;;;;;;;;;;11.50;99.90;;;;;;5093686;28;20037;-50
2022/02/26 11:05:54;;;;;;;;;;;11.60;99.90;;;;;;5093597;28;20002;-49
2022/02/26 11:08:21;;;;;;;;;;;11.60;99.90;;;;;;5093363;28;20382;-52
2022/02/26 11:10:47;;;;;;;;;;;11.80;99.90;;;;;;5093300;28;20435;-51
2022/02/26 11:13:13;;;;;;;;;;;12.00;99.90;;;;;;5091100;28;19920;-48
2022/02/26 11:15:39;;;;;;;;;;;12.10;99.90;;;;;;5073539;28;19927;-52
2022/02/26 11:18:05;;;;;;;;;;;12.30;99.90;;;;;;5073507;28;20319;-51
2022/02/26 11:20:33;;;;;;;;;;;12.30;99.90;;;;;;5073106;28;19927;-51
2022/02/26 11:22:58;;;;;;;;;;;12.70;99.90;;;;;;5073377;28;20236;-52
2022/02/26 11:25:25;;;;;;;;;;;12.60;99.90;;;;;;5054835;28;20334;-52
2022/02/26 11:27:51;;;;;;;;;;;12.70;99.90;;;;;;5104827;28;19916;-50
2022/02/26 11:30:17;;;;;;;;;;;12.60;99.90;;;;;;5072899;28;20019;-52
2022/02/26 11:32:43;;;;;;;;;;;12.80;99.90;;;;;;5072666;28;19916;-51
2022/02/26 11:35:17;;;;;;;;;;;12.80;99.90;;;;;;5072680;28;19916;-53
2022/02/26 11:37:46;;;;;;;;;;;12.70;99.90;;;;;;5072613;28;19921;-52
2022/02/26 11:40:13;;;;;;;;;;;12.90;99.90;;;;;;5072695;28;19963;-51
2022/02/26 11:42:39;;;;;;;;;;;13.00;99.90;;;;;;5072639;28;20367;-52
2022/02/26 11:45:05;;;;;;;;;;;13.30;99.90;;;;;;5072588;28;20345;-53
2022/02/26 11:47:32;;;;;;;;;;;13.30;99.90;;;;;;5072598;28;20015;-48
2022/02/26 11:49:59;;;;;;;;;;;13.30;99.90;;;;;;5072703;28;19964;-51
2022/02/26 11:52:43;;;;;;;;;;;13.40;99.90;;;;;;5072631;28;19959;-52
2022/02/26 11:55:24;;;;;;;;;;;13.50;99.90;;;;;;5072821;28;20305;-52
2022/02/26 11:57:50;;;;;;;;;;;13.60;99.90;;;;;;5072409;28;19917;-52
2022/02/26 12:00:17;;;;;;;;;;;13.30;99.90;;;;;;5072742;28;19959;-49
2022/02/26 12:02:43;;;;;;;;;;;13.10;99.90;;;;;;5072461;28;19920;-50
2022/02/26 12:05:09;;;;;;;;;;;13.50;99.90;;;;;;5072546;28;19923;-50
2022/02/26 12:07:39;;;;;;;;;;;13.40;99.90;;;;;;5072436;28;19962;-53
2022/02/26 12:10:13;;;;;;;;;;;13.40;99.90;;;;;;5072424;28;19973;-52
2022/02/26 12:12:45;;;;;;;;;;;13.10;99.90;;;;;;5072235;28;19924;-50
2022/02/26 12:15:14;;;;;;;;;;;13.30;99.90;;;;;;5072196;28;19916;-50
2022/02/26 12:17:43;;;;;;;;;;;13.30;99.90;;;;;;5072351;28;19920;-50
2022/02/26 12:20:15;;;;;;;;;;;13.30;99.90;;;;;;5072172;28;19963;-50
2022/02/26 12:22:45;;;;;;;;;;;13.20;99.90;;;;;;5072235;28;19989;-53
2022/02/26 12:25:12;;;;;;;;;;;13.30;99.90;;;;;;5072384;28;20282;-52
2022/02/26 12:27:38;;;;;;;;;;;13.20;99.90;;;;;;5072338;28;19916;-52
2022/02/26 12:30:14;;;;;;;;;;;13.40;99.90;;;;;;5072157;28;19920;-51
2022/02/26 12:32:58;;;;;;;;;;;13.30;99.90;;;;;;5072264;28;19919;-51
2022/02/26 12:35:24;;;;;;;;;;;13.30;99.90;;;;;;5072068;28;19962;-53
2022/02/26 12:37:50;;;;;;;;;;;13.20;99.90;;;;;;5073156;28;19975;-53
2022/02/26 12:40:27;;;;;;;;;;;13.10;99.90;;;;;;5076300;28;20022;-51
2022/02/26 12:43:00;;;;;;;;;;;13.00;99.90;;;;;;5076252;28;19969;-49
2022/02/26 12:45:26;;;;;;;;;;;12.90;99.90;;;;;;5076057;28;19916;-51
2022/02/26 12:47:52;;;;;;;;;;;13.10;99.90;;;;;;5075891;28;19923;-52
2022/02/26 12:50:18;;;;;;;;;;;13.10;99.90;;;;;;5075739;28;20281;-51
2022/02/26 12:52:44;;;;;;;;;;;13.10;99.90;;;;;;5075741;28;19966;-52
2022/02/26 12:55:16;;;;;;;;;;;13.00;99.90;;;;;;5076357;28;19916;-49
2022/02/26 12:57:43;;;;;;;;;;;13.20;99.90;;;;;;5075866;28;19970;-56
2022/02/26 13:00:10;;;;;;;;;;;13.20;99.90;;;;;;5076034;28;19939;-51
2022/02/26 13:02:43;;;;;;;;;;;13.30;99.90;;;;;;5075752;28;19923;-52
2022/02/26 13:05:09;;;;;;;;;;;13.10;99.90;;;;;;5075729;28;19916;-50
2022/02/26 13:07:34;;;;;;;;;;;13.30;99.90;;;;;;5075422;28;19970;-52
2022/02/26 13:10:00;;;;;;;;;;;13.20;99.90;;;;;;5075557;28;20015;-52
2022/02/26 13:12:26;;;;;;;;;;;13.00;99.90;;;;;;5075314;28;19916;-51
2022/02/26 13:14:53;;;;;;;;;;;12.90;99.90;;;;;;5075479;28;20420;-49
2022/02/26 13:17:19;;;;;;;;;;;12.90;99.90;;;;;;5075398;28;20374;-49
2022/02/26 13:19:44;;;;;;;;;;;12.60;99.90;;;;;;5075277;28;19916;-52
2022/02/26 13:22:10;;;;;;;;;;;12.60;99.90;;;;;;5075330;28;19916;-53
2022/02/26 13:24:37;;;;;;;;;;;12.90;99.90;;;;;;5075138;28;19924;-53
2022/02/26 13:27:03;;;;;;;;;;;12.70;99.90;;;;;;5075259;28;19923;-52
2022/02/26 13:29:29;;;;;;;;;;;12.90;99.90;;;;;;5075050;28;19920;-52
2022/02/26 13:31:54;;;;;;;;;;;12.80;99.90;;;;;;5075131;28;19920;-48
2022/02/26 13:34:21;;;;;;;;;;;12.70;99.90;;;;;;5073803;28;20366;-51
2022/02/26 13:36:50;;;;;;;;;;;12.90;99.90;;;;;;5074981;28;19927;-50
2022/02/26 13:39:18;;;;;;;;;;;12.90;99.90;;;;;;5075010;28;20378;-52
2022/02/26 13:41:44;;;;;;;;;;;12.80;99.90;;;;;;5075066;28;20026;-50
2022/02/26 13:44:11;;;;;;;;;;;12.90;99.90;;;;;;5074979;28;20043;-51
2022/02/26 13:46:52;;;;;;;;;;;12.70;99.90;;;;;;5075028;28;19923;-49
2022/02/26 13:49:18;;;;;;;;;;;12.50;99.90;;;;;;5074130;28;20374;-51
2022/02/26 13:51:46;;;;;;;;;;;12.50;99.90;;;;;;5073629;28;20020;-52
2022/02/26 13:54:15;;;;;;;;;;;12.50;99.90;;;;;;5074931;28;19975;-52
2022/02/26 13:56:41;;;;;;;;;;;12.30;99.90;;;;;;5074614;28;20290;-52
2022/02/26 13:59:08;;;;;;;;;;;12.30;99.90;;;;;;5074823;28;19920;-50
2022/02/26 14:01:48;;;;;;;;;;;12.10;99.90;;;;;;5074921;28;19923;-57
2022/02/26 14:04:19;;;;;;;;;;;12.10;99.90;;;;;;5074592;28;19923;-54
2022/02/26 14:06:46;;;;;;;;;;;12.00;99.90;;;;;;5074454;28;19916;-51
2022/02/26 14:09:30;;;;;;;;;;;11.90;99.90;;;;;;5074307;28;19920;-50
2022/02/26 14:11:57;;;;;;;;;;;12.00;99.90;;;;;;5074737;28;20045;-49
2022/02/26 14:14:40;;;;;;;;;;;12.10;99.90;;;;;;5074608;28;20285;-51
2022/02/26 14:17:08;;;;;;;;;;;12.00;99.90;;;;;;5074287;28;19922;-50
2022/02/26 14:19:34;;;;;;;;;;;12.00;99.90;;;;;;5074199;28;19970;-49
2022/02/26 14:22:00;;;;;;;;;;;12.00;99.90;;;;;;5074311;28;19970;-45
2022/02/26 14:24:26;;;;;;;;;;;11.70;99.90;;;;;;5074238;28;20328;-48